Time;durP1;ratioP1;P1;durP2;ratioP2;P2;SDS_P1;SDS_P2;PMS_P1;PMS_P2;Temp;Humidity;BMP_temperature;BMP_pressure;BME280_temperature;BME280_humidity;BME280_pressure;Samples;Min_cycle;Max_cycle;Signal;HPM_P1;HPM_P2
2022/07/02 00:02:53;;;;;;;6.60;5.90;;;;;;;21.37;82.09;100352.83;130254;1268;108748;-79
2022/07/02 00:06:01;;;;;;;6.60;5.90;;;;;;;21.26;81.69;100345.73;130397;1268;109191;-80
2022/07/02 00:09:07;;;;;;;7.40;5.80;;;;;;;21.19;81.50;100337.24;130285;1268;108950;-80
2022/07/02 00:12:14;;;;;;;6.20;4.90;;;;;;;21.12;81.70;100334.38;130306;1271;109796;-80
2022/07/02 00:15:20;;;;;;;6.10;4.70;;;;;;;21.01;82.14;100332.83;130352;1268;107412;-80
2022/07/02 00:18:27;;;;;;;5.20;4.40;;;;;;;20.93;82.29;100332.47;130401;1268;108575;-78
2022/07/02 00:21:33;;;;;;;5.00;4.30;;;;;;;20.89;81.88;100329.58;130323;1268;108880;-78
2022/07/02 00:24:40;;;;;;;4.50;4.10;;;;;;;20.80;81.97;100341.73;130315;1268;108856;-77
2022/07/02 00:27:47;;;;;;;4.90;3.90;;;;;;;20.77;81.76;100344.01;130302;1269;108569;-78
2022/07/02 00:30:53;;;;;;;5.90;4.20;;;;;;;20.74;81.67;100349.98;130322;1271;108905;-79
2022/07/02 00:33:59;;;;;;;5.00;4.30;;;;;;;20.72;81.75;100349.58;130374;1268;108803;-78
2022/07/02 00:37:09;;;;;;;4.50;3.80;;;;;;;20.67;82.62;100353.53;130326;1268;108975;-79
2022/07/02 00:40:16;;;;;;;3.90;3.60;;;;;;;20.63;81.72;100350.06;130302;1268;108895;-78
2022/07/02 00:43:23;;;;;;;4.60;4.00;;;;;;;20.65;82.64;100336.91;130417;1268;108517;-79
2022/07/02 00:46:30;;;;;;;5.90;3.90;;;;;;;20.59;82.42;100327.20;130297;1268;108730;-79
2022/07/02 00:49:37;;;;;;;5.20;4.00;;;;;;;20.50;82.29;100335.12;130335;1270;109092;-78
2022/07/02 00:52:43;;;;;;;5.20;4.00;;;;;;;20.44;82.77;100346.07;130297;1268;107043;-80
2022/07/02 00:55:57;;;;;;;4.70;4.20;;;;;;;20.40;82.94;100349.85;130295;1268;108846;-80
2022/07/02 00:59:04;;;;;;;4.90;4.40;;;;;;;20.43;82.67;100358.46;130385;1268;109811;-79
2022/07/02 01:02:10;;;;;;;5.70;4.20;;;;;;;20.48;82.07;100351.85;130312;1268;109021;-78
2022/07/02 01:05:19;;;;;;;4.90;4.20;;;;;;;20.50;82.87;100338.30;130216;1268;109105;-78
2022/07/02 01:11:51;;;;;;;5.60;4.40;;;;;;;20.42;82.23;100352.17;130306;1268;108710;-79
2022/07/02 01:14:58;;;;;;;5.20;4.10;;;;;;;20.46;82.64;100352.65;130435;1268;108875;-79
2022/07/02 01:18:05;;;;;;;4.20;3.80;;;;;;;20.47;82.76;100356.15;130347;1268;107787;-83
2022/07/02 01:21:11;;;;;;;6.00;4.40;;;;;;;20.47;82.69;100355.27;130589;1268;108734;-78
2022/07/02 01:24:25;;;;;;;4.90;4.10;;;;;;;20.52;82.31;100356.96;130239;1268;108802;-79
2022/07/02 01:27:31;;;;;;;6.20;4.10;;;;;;;20.58;82.53;100353.38;130244;1268;108782;-79
2022/07/02 01:30:37;;;;;;;4.90;4.40;;;;;;;20.56;82.43;100343.29;130234;1268;108904;-78
2022/07/02 01:33:42;;;;;;;5.80;4.30;;;;;;;20.64;82.22;100338.70;130200;1269;108817;-80
2022/07/02 01:36:48;;;;;;;5.60;4.60;;;;;;;20.75;82.12;100350.73;130320;1268;108861;-79
2022/07/02 01:39:53;;;;;;;7.70;4.40;;;;;;;20.89;81.84;100359.06;130256;1268;108845;-79
2022/07/02 01:42:59;;;;;;;4.60;4.20;;;;;;;21.00;81.71;100355.20;130235;1268;108978;-78
2022/07/02 01:46:04;;;;;;;4.40;3.80;;;;;;;21.07;81.48;100360.58;130154;1268;109175;-77
2022/07/02 01:49:09;;;;;;;5.20;3.90;;;;;;;21.14;81.46;100361.29;130113;1268;108967;-79
2022/07/02 01:52:16;;;;;;;5.30;4.40;;;;;;;21.23;81.23;100361.52;130231;1268;107880;-78
2022/07/02 01:55:21;;;;;;;7.10;4.20;;;;;;;21.28;81.08;100368.90;130383;1268;108473;-78
2022/07/02 01:58:27;;;;;;;4.80;3.90;;;;;;;21.32;81.08;100383.86;130255;1268;108780;-77
2022/07/02 02:01:32;;;;;;;4.00;3.40;;;;;;;21.37;80.87;100391.88;130242;1268;109009;-75
2022/07/02 02:04:38;;;;;;;4.50;3.70;;;;;;;21.43;80.84;100385.16;130209;1268;108842;-76
2022/07/02 02:07:43;;;;;;;5.60;4.10;;;;;;;21.46;80.66;100391.49;130249;1268;108718;-76
2022/07/02 02:10:48;;;;;;;5.30;4.00;;;;;;;21.47;80.43;100402.43;130231;1268;107887;-77
2022/07/02 02:13:57;;;;;;;4.80;3.80;;;;;;;21.47;80.51;100407.33;130059;1268;108713;-77
2022/07/02 02:17:03;;;;;;;5.60;4.10;;;;;;;21.47;80.36;100405.82;130204;1268;108806;-76
2022/07/02 02:20:11;;;;;;;6.70;4.00;;;;;;;21.38;80.36;100402.98;130024;1268;108730;-76
2022/07/02 02:23:16;;;;;;;7.20;4.70;;;;;;;21.28;80.57;100398.38;130346;1268;108869;-76
2022/07/02 02:26:22;;;;;;;7.10;4.20;;;;;;;21.10;80.72;100390.16;130076;1270;108538;-76
2022/07/02 02:29:29;;;;;;;5.80;4.60;;;;;;;20.94;81.18;100387.54;130054;1270;108742;-76
2022/07/02 02:32:36;;;;;;;5.10;4.20;;;;;;;20.79;81.27;100390.67;130270;1268;108809;-76
2022/07/02 02:35:42;;;;;;;6.30;4.50;;;;;;;20.68;81.71;100400.74;130255;1268;108505;-75
2022/07/02 02:38:48;;;;;;;8.90;5.40;;;;;;;20.61;82.05;100403.81;130236;1268;108163;-74
2022/07/02 02:41:53;;;;;;;5.90;5.10;;;;;;;20.52;82.62;100399.25;130245;1268;107357;-74
2022/07/02 02:44:58;;;;;;;7.20;5.10;;;;;;;20.47;83.12;100403.40;130205;1268;108527;-75
2022/07/02 02:48:05;;;;;;;6.40;5.20;;;;;;;20.44;82.78;100401.32;130244;1268;107649;-74
2022/07/02 02:51:14;;;;;;;7.00;5.40;;;;;;;20.39;83.08;100410.93;130095;1268;109197;-74
2022/07/02 02:54:19;;;;;;;9.70;6.80;;;;;;;20.37;83.52;100411.92;130253;1268;108355;-75
2022/07/02 02:57:24;;;;;;;6.70;6.10;;;;;;;20.25;84.12;100409.97;130231;1268;108692;-73
2022/07/02 03:00:30;;;;;;;8.20;6.40;;;;;;;20.18;83.52;100417.46;130250;1268;108847;-75
2022/07/02 03:03:36;;;;;;;7.50;6.70;;;;;;;20.19;84.07;100414.73;130166;1268;108902;-75
2022/07/02 03:06:41;;;;;;;6.80;6.10;;;;;;;20.11;83.68;100419.35;130262;1268;107289;-73
2022/07/02 03:09:46;;;;;;;6.90;5.80;;;;;;;20.09;83.64;100425.19;130199;1268;108888;-74
2022/07/02 03:12:52;;;;;;;6.50;5.90;;;;;;;20.00;84.29;100426.78;130230;1268;109253;-76
2022/07/02 03:15:57;;;;;;;6.10;5.60;;;;;;;19.82;84.42;100422.47;130293;1268;108861;-75
2022/07/02 03:19:02;;;;;;;7.50;6.00;;;;;;;19.83;84.58;100417.73;130267;1268;108668;-74
2022/07/02 03:22:08;;;;;;;9.20;6.00;;;;;;;19.78;84.74;100421.69;130240;1268;108981;-73
2022/07/02 03:25:13;;;;;;;5.80;5.20;;;;;;;19.78;84.95;100430.69;130271;1268;108630;-74
2022/07/02 03:28:18;;;;;;;7.70;6.00;;;;;;;19.67;84.88;100431.54;130247;1268;108919;-76
2022/07/02 03:31:24;;;;;;;6.80;6.00;;;;;;;19.64;85.07;100426.87;130297;1268;109022;-74
2022/07/02 03:34:30;;;;;;;7.10;6.10;;;;;;;19.55;85.25;100434.73;130263;1268;108546;-77
2022/07/02 03:37:35;;;;;;;6.20;5.50;;;;;;;19.52;85.34;100443.52;130260;1268;108842;-75
2022/07/02 03:40:41;;;;;;;6.80;5.80;;;;;;;19.42;86.10;100445.44;130260;1268;108625;-74
2022/07/02 03:43:46;;;;;;;7.30;5.40;;;;;;;19.28;87.29;100443.05;130260;1268;108851;-74
2022/07/02 03:46:51;;;;;;;7.40;5.70;;;;;;;19.17;86.64;100443.60;130318;1268;108863;-75
2022/07/02 03:49:57;;;;;;;6.10;5.10;;;;;;;19.09;86.69;100452.91;130237;1268;109245;-76
2022/07/02 03:53:02;;;;;;;6.50;5.60;;;;;;;19.11;86.58;100459.61;130303;1268;108913;-75
2022/07/02 03:56:08;;;;;;;7.20;6.40;;;;;;;19.20;86.61;100453.56;130265;1268;108901;-75
2022/07/02 03:59:13;;;;;;;7.80;5.80;;;;;;;19.22;86.92;100461.17;130290;1268;108726;-74
2022/07/02 04:02:19;;;;;;;5.90;5.10;;;;;;;19.07;87.27;100459.59;130257;1268;108639;-75
2022/07/02 04:05:24;;;;;;;6.50;5.70;;;;;;;19.13;87.56;100464.14;130307;1268;108302;-76
2022/07/02 04:08:30;;;;;;;7.20;6.10;;;;;;;19.10;87.52;100469.57;130226;1268;108759;-76
2022/07/02 04:11:35;;;;;;;6.50;5.90;;;;;;;19.08;87.49;100473.67;130200;1268;108822;-75
2022/07/02 04:14:40;;;;;;;7.70;6.10;;;;;;;19.23;87.28;100479.04;130233;1268;108707;-74
2022/07/02 04:17:46;;;;;;;6.50;5.80;;;;;;;19.28;86.63;100476.54;130272;1268;108682;-76
2022/07/02 04:20:51;;;;;;;7.10;6.30;;;;;;;19.33;86.50;100482.09;130221;1268;109136;-75
2022/07/02 04:23:56;;;;;;;7.00;6.40;;;;;;;19.28;86.48;100478.77;130279;1268;108922;-77
2022/07/02 04:27:02;;;;;;;7.50;6.60;;;;;;;19.13;87.13;100486.96;130415;1268;107684;-75
2022/07/02 04:30:10;;;;;;;6.90;6.20;;;;;;;19.03;87.30;100488.34;130523;1268;108780;-74
2022/07/02 04:33:15;;;;;;;7.70;6.50;;;;;;;18.97;87.25;100490.31;130370;1268;109605;-74
2022/07/02 04:36:20;;;;;;;8.20;7.40;;;;;;;18.99;87.13;100491.95;130281;1268;108828;-74
2022/07/02 04:39:26;;;;;;;9.10;7.60;;;;;;;18.99;87.47;100501.89;130284;1268;108951;-74
2022/07/02 04:42:31;;;;;;;8.70;7.80;;;;;;;18.77;87.96;100508.52;130266;1268;108917;-75
2022/07/02 04:45:37;;;;;;;7.80;7.00;;;;;;;18.62;88.20;100505.76;130310;1268;108753;-73
2022/07/02 04:48:42;;;;;;;7.60;6.50;;;;;;;18.63;88.29;100506.27;130250;1268;108734;-74
2022/07/02 04:51:47;;;;;;;9.70;7.10;;;;;;;18.66;87.89;100503.21;130220;1268;108812;-73
2022/07/02 04:54:53;;;;;;;9.90;8.00;;;;;;;18.66;88.21;100509.16;130316;1268;108838;-74
2022/07/02 04:57:59;;;;;;;8.70;7.00;;;;;;;18.69;88.04;100513.09;130252;1268;108916;-75
2022/07/02 05:01:04;;;;;;;9.00;6.80;;;;;;;18.63;88.12;100518.24;130232;1268;108823;-73
2022/07/02 05:04:10;;;;;;;9.50;6.80;;;;;;;18.61;87.87;100525.84;130190;1268;108755;-73
2022/07/02 05:07:15;;;;;;;7.50;6.60;;;;;;;18.66;87.92;100534.48;130239;1268;109304;-73
2022/07/02 05:10:20;;;;;;;7.80;6.60;;;;;;;18.71;87.49;100542.49;130321;1268;108830;-75
2022/07/02 05:13:26;;;;;;;7.80;6.50;;;;;;;18.75;87.88;100550.86;130290;1268;108828;-77
2022/07/02 05:16:31;;;;;;;6.30;5.50;;;;;;;18.81;87.61;100557.16;130207;1268;108781;-76
2022/07/02 05:19:37;;;;;;;6.70;5.70;;;;;;;18.90;87.31;100566.33;130276;1268;108929;-77
2022/07/02 05:22:42;;;;;;;5.60;5.10;;;;;;;18.90;87.56;100570.14;130338;1268;108957;-74
2022/07/02 05:25:47;;;;;;;8.30;5.90;;;;;;;18.89;87.49;100571.81;130253;1268;108837;-74
2022/07/02 05:28:53;;;;;;;5.80;5.20;;;;;;;18.94;87.36;100576.48;130175;1268;108741;-75
2022/07/02 05:31:58;;;;;;;6.50;5.20;;;;;;;19.03;87.40;100582.98;130191;1268;108818;-75
2022/07/02 05:35:04;;;;;;;6.00;4.90;;;;;;;19.08;86.99;100582.14;130249;1268;108870;-75
2022/07/02 05:38:09;;;;;;;8.20;5.90;;;;;;;19.12;86.97;100585.36;130266;1268;107496;-75
2022/07/02 05:41:15;;;;;;;6.70;5.30;;;;;;;19.08;86.90;100587.42;130220;1268;108788;-76
2022/07/02 05:44:20;;;;;;;9.30;5.40;;;;;;;18.99;87.08;100591.01;130201;1268;108129;-76
2022/07/02 05:47:26;;;;;;;7.20;5.40;;;;;;;18.98;87.11;100592.54;130271;1268;108840;-75
2022/07/02 05:50:31;;;;;;;5.40;4.90;;;;;;;18.90;87.39;100599.11;130312;1268;108974;-75
2022/07/02 05:53:37;;;;;;;5.40;4.90;;;;;;;18.83;87.96;100603.40;130170;1268;107599;-76
2022/07/02 05:56:42;;;;;;;4.30;3.90;;;;;;;18.75;88.08;100609.80;130241;1268;108800;-75
2022/07/02 05:59:47;;;;;;;4.40;3.70;;;;;;;18.74;87.59;100609.46;130301;1268;108754;-77
2022/07/02 06:02:53;;;;;;;4.00;3.30;;;;;;;18.76;87.95;100614.21;130312;1268;108708;-77
2022/07/02 06:09:21;;;;;;;4.00;3.00;;;;;;;18.74;87.91;100620.20;130263;1268;108750;-77
2022/07/02 06:12:27;;;;;;;3.80;3.00;;;;;;;18.72;87.74;100627.73;130256;1268;108710;-76
2022/07/02 06:15:32;;;;;;;3.50;2.70;;;;;;;18.74;87.75;100625.11;130240;1268;108648;-76
2022/07/02 06:18:37;;;;;;;4.40;3.00;;;;;;;18.87;87.46;100634.11;130216;1268;108761;-77
2022/07/02 06:21:43;;;;;;;4.30;2.40;;;;;;;18.94;87.19;100636.23;130284;1267;108854;-77
2022/07/02 06:24:48;;;;;;;4.40;2.80;;;;;;;19.06;87.00;100643.42;130232;1267;108909;-77
2022/07/02 06:27:53;;;;;;;3.80;2.20;;;;;;;19.11;86.65;100651.95;130288;1267;108904;-75
2022/07/02 06:30:59;;;;;;;2.80;2.30;;;;;;;19.03;86.73;100655.35;130297;1267;108930;-74
2022/07/02 06:34:05;;;;;;;2.20;1.90;;;;;;;18.90;86.95;100665.08;130251;1266;109007;-75
2022/07/02 06:37:10;;;;;;;1.60;1.50;;;;;;;18.79;87.10;100674.98;130226;1267;108895;-75
2022/07/02 06:40:16;;;;;;;3.10;1.80;;;;;;;18.68;87.33;100674.92;130308;1267;107688;-75
2022/07/02 06:43:23;;;;;;;2.00;1.80;;;;;;;18.63;87.52;100682.86;130302;1267;108559;-74
2022/07/02 06:46:29;;;;;;;1.80;1.70;;;;;;;18.48;87.91;100684.24;130296;1267;109180;-75
2022/07/02 06:49:34;;;;;;;1.60;1.50;;;;;;;18.30;88.39;100685.41;130309;1267;108724;-75
2022/07/02 06:52:44;;;;;;;1.80;1.50;;;;;;;18.22;88.76;100690.19;130207;1268;108761;-75
2022/07/02 06:55:49;;;;;;;1.70;1.60;;;;;;;18.29;88.37;100699.44;130303;1267;107483;-75
2022/07/02 06:58:56;;;;;;;2.30;1.40;;;;;;;18.24;88.59;100700.09;130278;1267;107424;-73
2022/07/02 07:02:02;;;;;;;2.10;1.30;;;;;;;18.10;88.95;100700.65;130303;1267;108948;-73
2022/07/02 07:05:10;;;;;;;1.70;1.30;;;;;;;17.98;89.26;100705.06;130302;1268;107659;-74
2022/07/02 07:08:16;;;;;;;1.60;1.40;;;;;;;17.96;89.24;100709.27;130312;1267;107099;-74
2022/07/02 07:11:21;;;;;;;1.80;1.50;;;;;;;17.99;89.43;100713.05;130314;1267;108725;-74
2022/07/02 07:14:28;;;;;;;1.50;1.20;;;;;;;17.97;89.49;100718.80;130347;1267;107231;-74
2022/07/02 07:17:33;;;;;;;1.20;1.10;;;;;;;17.94;89.39;100727.77;130274;1267;107159;-73
2022/07/02 07:20:39;;;;;;;1.50;1.10;;;;;;;17.95;89.35;100724.23;130306;1267;108724;-73
2022/07/02 07:23:44;;;;;;;0.80;0.80;;;;;;;17.79;89.90;100728.99;130230;1268;108952;-73
2022/07/02 07:26:50;;;;;;;1.20;1.00;;;;;;;17.77;89.82;100740.59;130328;1267;108500;-72
2022/07/02 07:29:55;;;;;;;1.50;1.30;;;;;;;17.65;91.03;100746.73;130284;1267;108713;-73
2022/07/02 07:33:01;;;;;;;1.00;0.80;;;;;;;17.77;90.11;100755.08;130223;1268;108925;-73
2022/07/02 07:36:06;;;;;;;1.20;0.90;;;;;;;17.95;89.87;100756.95;130264;1268;108934;-73
2022/07/02 07:39:12;;;;;;;0.90;0.90;;;;;;;18.16;89.31;100753.20;130311;1268;108933;-74
2022/07/02 07:42:17;;;;;;;1.50;0.90;;;;;;;18.17;89.00;100758.95;130262;1268;108837;-76
2022/07/02 07:45:22;;;;;;;1.10;1.00;;;;;;;18.18;88.71;100757.96;130282;1268;108762;-77
2022/07/02 07:48:28;;;;;;;3.00;1.10;;;;;;;18.16;88.63;100757.40;130624;1268;108842;-76
2022/07/02 07:51:34;;;;;;;1.80;1.10;;;;;;;18.27;88.78;100761.88;130257;1267;108569;-75
2022/07/02 07:54:39;;;;;;;1.70;1.30;;;;;;;18.32;88.46;100761.27;130381;1268;109059;-79
2022/07/02 07:57:45;;;;;;;2.40;1.30;;;;;;;18.41;88.21;100771.05;130367;1268;108827;-81
2022/07/02 08:00:50;;;;;;;2.60;1.30;;;;;;;18.44;88.09;100775.58;130329;1268;108793;-77
2022/07/02 08:03:56;;;;;;;2.80;1.50;;;;;;;18.45;88.07;100785.89;130338;1268;108801;-79
2022/07/02 08:07:01;;;;;;;2.20;1.30;;;;;;;18.47;87.90;100785.28;130321;1268;108851;-75
2022/07/02 08:10:10;;;;;;;4.60;1.60;;;;;;;18.62;87.82;100782.94;130304;1268;108695;-74
2022/07/02 08:13:15;;;;;;;2.30;1.30;;;;;;;18.57;87.56;100781.11;130231;1268;108743;-72
2022/07/02 08:16:21;;;;;;;2.60;1.40;;;;;;;18.49;87.76;100785.60;130233;1268;108720;-72
2022/07/02 08:19:26;;;;;;;1.70;1.50;;;;;;;18.47;87.37;100783.14;130350;1268;108639;-76
2022/07/02 08:22:32;;;;;;;1.50;1.30;;;;;;;18.55;87.53;100792.31;130337;1268;108752;-74
2022/07/02 08:25:37;;;;;;;3.60;1.30;;;;;;;18.57;87.54;100800.06;130294;1268;108900;-74
2022/07/02 08:28:43;;;;;;;2.00;1.50;;;;;;;18.61;87.68;100808.01;130248;1268;109275;-73
2022/07/02 08:31:48;;;;;;;4.30;1.50;;;;;;;18.78;87.48;100812.64;130391;1268;108838;-79
2022/07/02 08:34:54;;;;;;;2.80;1.40;;;;;;;18.82;86.92;100823.88;130253;1268;108789;-76
2022/07/02 08:37:59;;;;;;;3.10;1.60;;;;;;;18.76;86.92;100824.42;130228;1268;108592;-76
2022/07/02 08:41:06;;;;;;;2.40;1.80;;;;;;;18.60;86.80;100824.22;130195;1268;108726;-77
2022/07/02 08:44:13;;;;;;;6.20;1.90;;;;;;;18.34;87.51;100826.69;130224;1268;109680;-77
2022/07/02 08:47:19;;;;;;;2.80;1.60;;;;;;;18.28;87.70;100827.61;130281;1268;109062;-74
2022/07/02 08:50:26;;;;;;;2.50;1.80;;;;;;;18.21;88.00;100826.27;130268;1268;109028;-74
2022/07/02 08:53:32;;;;;;;4.40;1.80;;;;;;;18.18;88.26;100823.28;130267;1268;107442;-73
2022/07/02 08:56:37;;;;;;;3.40;2.20;;;;;;;18.24;88.46;100830.46;130211;1268;108953;-72
2022/07/02 08:59:44;;;;;;;2.00;1.90;;;;;;;18.34;88.21;100832.42;130205;1268;108953;-74
2022/07/02 09:02:53;;;;;;;3.00;2.00;;;;;;;18.30;88.12;100839.23;130332;1268;108721;-74
2022/07/02 09:05:58;;;;;;;2.50;2.00;;;;;;;18.22;88.22;100839.46;130315;1268;108863;-72
2022/07/02 09:09:04;;;;;;;2.80;1.70;;;;;;;18.26;88.47;100843.92;130204;1268;108794;-73
2022/07/02 09:12:12;;;;;;;2.30;1.90;;;;;;;18.33;88.49;100844.45;130199;1268;108714;-75
2022/07/02 09:15:18;;;;;;;2.40;2.00;;;;;;;18.39;88.43;100846.48;130201;1268;108499;-75
2022/07/02 09:18:24;;;;;;;2.30;2.10;;;;;;;18.38;88.50;100851.54;130207;1268;107845;-74
2022/07/02 09:21:40;;;;;;;2.80;2.20;;;;;;;18.39;88.84;100848.98;130179;1268;108272;-75
2022/07/02 09:24:45;;;;;;;2.50;2.00;;;;;;;18.45;88.86;100854.48;130209;1268;108204;-74
2022/07/02 09:27:59;;;;;;;2.00;1.80;;;;;;;18.39;89.08;100856.95;130251;1268;108687;-75
2022/07/02 09:31:06;;;;;;;2.70;1.90;;;;;;;18.29;89.64;100860.13;130269;1268;109005;-75
2022/07/02 09:34:11;;;;;;;2.80;2.10;;;;;;;18.37;90.12;100860.38;130244;1268;108525;-77
2022/07/02 09:37:18;;;;;;;2.40;1.90;;;;;;;18.70;89.43;100863.54;130284;1268;108771;-74
2022/07/02 09:40:23;;;;;;;4.80;1.40;;;;;;;19.12;88.13;100864.89;130302;1268;108776;-72
2022/07/02 09:43:31;;;;;;;2.00;1.30;;;;;;;19.47;86.67;100859.52;130317;1268;108746;-73
2022/07/02 09:46:37;;;;;;;2.00;1.40;;;;;;;19.78;86.11;100861.50;130248;1268;108876;-75
2022/07/02 09:49:50;;;;;;;1.60;1.30;;;;;;;19.99;85.11;100864.42;130202;1268;108752;-76
2022/07/02 09:52:58;;;;;;;1.60;1.30;;;;;;;20.00;84.10;100867.43;130230;1268;107641;-77
2022/07/02 09:56:07;;;;;;;1.90;1.40;;;;;;;20.05;84.67;100862.78;130198;1268;108653;-78
2022/07/02 09:59:16;;;;;;;3.30;1.50;;;;;;;20.33;83.71;100864.00;130237;1268;108939;-75
2022/07/02 10:02:24;;;;;;;2.50;1.60;;;;;;;20.40;83.70;100870.52;130304;1268;108769;-77
2022/07/02 10:05:31;;;;;;;1.90;1.60;;;;;;;20.24;83.12;100868.66;130230;1268;108637;-76
2022/07/02 10:08:39;;;;;;;2.30;1.40;;;;;;;20.03;83.07;100874.25;130215;1267;108739;-76
2022/07/02 10:11:44;;;;;;;1.60;1.50;;;;;;;19.83;82.50;100878.11;130357;1268;107588;-77
2022/07/02 10:14:51;;;;;;;1.90;1.50;;;;;;;19.72;83.27;100881.88;130287;1268;109002;-78
2022/07/02 10:17:57;;;;;;;1.70;1.60;;;;;;;19.62;82.03;100887.30;130217;1267;108773;-74
2022/07/02 10:21:03;;;;;;;2.10;1.90;;;;;;;19.47;83.10;100885.17;130303;1268;108792;-76
2022/07/02 10:24:10;;;;;;;2.30;1.70;;;;;;;19.47;82.80;100884.63;130213;1268;108943;-78
2022/07/02 10:27:18;;;;;;;1.90;1.60;;;;;;;19.36;82.62;100887.52;130585;1267;108799;-74
2022/07/02 10:30:25;;;;;;;2.30;1.80;;;;;;;19.36;83.03;100885.54;130359;1268;108775;-73
2022/07/02 10:33:40;;;;;;;2.00;1.70;;;;;;;19.44;82.15;100880.73;130323;1268;108866;-74
2022/07/02 10:36:46;;;;;;;2.70;1.70;;;;;;;19.63;82.36;100869.88;130202;1268;108284;-72
2022/07/02 10:39:59;;;;;;;1.80;1.50;;;;;;;19.82;81.23;100870.73;130204;1268;108253;-77
2022/07/02 10:43:14;;;;;;;2.70;1.60;;;;;;;20.03;81.47;100868.27;130192;1268;108880;-75
2022/07/02 10:46:19;;;;;;;2.60;2.00;;;;;;;20.43;80.26;100876.45;130210;1268;108676;-76
2022/07/02 10:49:28;;;;;;;2.90;1.80;;;;;;;20.46;79.32;100880.77;130235;1268;108717;-76
2022/07/02 10:52:50;;;;;;;1.40;1.20;;;;;;;20.57;79.73;100879.48;130190;1268;108071;-75
2022/07/02 10:56:03;;;;;;;2.10;1.50;;;;;;;20.86;78.44;100874.19;130253;1268;108507;-77
2022/07/02 10:59:19;;;;;;;1.60;1.50;;;;;;;21.02;77.71;100870.58;130298;1268;108135;-80
2022/07/02 11:02:35;;;;;;;1.60;1.50;;;;;;;21.08;76.92;100867.66;130222;1268;109044;-80
2022/07/02 11:05:55;;;;;;;3.40;1.70;;;;;;;21.13;76.18;100869.50;130250;1268;108408;-76
2022/07/02 11:09:01;;;;;;;2.20;1.50;;;;;;;21.14;75.83;100868.60;130493;1267;108814;-73
2022/07/02 11:12:10;;;;;;;3.80;1.40;;;;;;;21.26;74.88;100877.61;130249;1268;108747;-75
2022/07/02 11:15:21;;;;;;;1.60;1.40;;;;;;;21.44;75.68;100867.68;130302;1268;108799;-75
2022/07/02 11:18:30;;;;;;;2.20;1.20;;;;;;;21.54;74.36;100873.00;130277;1268;107329;-74
2022/07/02 11:21:41;;;;;;;1.50;1.40;;;;;;;21.36;74.63;100876.83;130715;1268;108550;-74
2022/07/02 11:24:47;;;;;;;2.40;1.50;;;;;;;20.93;75.46;100878.36;130529;1268;108882;-74
2022/07/02 11:28:00;;;;;;;2.10;1.50;;;;;;;20.66;75.66;100881.16;130527;1267;226995;-76
2022/07/02 11:31:06;;;;;;;2.50;1.20;;;;;;;20.59;76.10;100882.45;130584;1268;108865;-75
2022/07/02 11:34:11;;;;;;;3.40;1.30;;;;;;;20.57;76.08;100887.23;130456;1268;108771;-71
2022/07/02 11:37:23;;;;;;;2.00;1.20;;;;;;;20.75;76.54;100885.02;130578;1268;107417;-74
2022/07/02 11:40:28;;;;;;;2.90;2.60;;;;;;;20.99;75.63;100882.97;130462;1268;108862;-72
2022/07/02 11:43:34;;;;;;;4.00;2.10;;;;;;;21.16;75.12;100888.84;130232;1267;107766;-73
2022/07/02 11:46:39;;;;;;;1.60;1.50;;;;;;;20.88;74.51;100886.38;130302;1268;108949;-74
2022/07/02 11:49:47;;;;;;;2.00;1.20;;;;;;;20.59;75.19;100886.95;130371;1268;108931;-73
2022/07/02 11:52:53;;;;;;;1.40;1.30;;;;;;;20.36;75.12;100895.40;130295;1269;108792;-76
2022/07/02 11:56:09;;;;;;;3.00;1.80;;;;;;;20.19;75.97;100901.04;130562;1268;108869;-74
2022/07/02 11:59:17;;;;;;;2.30;1.30;;;;;;;20.17;76.34;100903.21;130565;1268;108674;-73
2022/07/02 12:02:22;;;;;;;1.50;1.30;;;;;;;20.11;75.97;100910.29;130418;1268;108751;-74
2022/07/02 12:05:27;;;;;;;4.60;1.70;;;;;;;20.01;76.46;100915.03;130609;1268;108708;-76
2022/07/02 12:08:33;;;;;;;3.00;1.50;;;;;;;20.06;76.60;100914.97;130357;1269;107467;-75
2022/07/02 12:11:40;;;;;;;1.60;1.40;;;;;;;20.05;76.34;100920.21;130444;1268;108905;-75
2022/07/02 12:14:50;;;;;;;2.10;1.60;;;;;;;19.98;75.91;100915.84;130428;1268;108661;-76
2022/07/02 12:17:58;;;;;;;1.90;1.70;;;;;;;19.87;75.70;100924.23;130205;1268;108704;-77
2022/07/02 12:21:12;;;;;;;1.60;1.50;;;;;;;19.81;76.20;100926.40;130184;1268;108622;-77
2022/07/02 12:24:24;;;;;;;1.80;1.50;;;;;;;19.86;76.46;100925.64;130468;1268;108911;-77
2022/07/02 12:27:29;;;;;;;3.00;1.60;;;;;;;19.87;76.01;100927.19;130494;1268;107204;-77
2022/07/02 12:30:35;;;;;;;1.80;1.50;;;;;;;19.85;76.04;100929.43;130725;1268;108792;-77
2022/07/02 12:33:41;;;;;;;3.30;1.50;;;;;;;20.01;76.05;100924.78;130633;1268;108871;-78
2022/07/02 12:36:56;;;;;;;2.20;1.60;;;;;;;20.02;75.69;100926.61;130189;1268;108760;-78
2022/07/02 12:40:05;;;;;;;2.10;1.50;;;;;;;19.89;75.88;100932.38;130466;1268;109098;-80
2022/07/02 12:43:10;;;;;;;1.70;1.30;;;;;;;19.74;76.14;100932.88;130634;1268;109705;-79
2022/07/02 12:46:15;;;;;;;1.50;1.40;;;;;;;19.67;75.90;100932.14;130461;1268;108975;-79
2022/07/02 12:49:23;;;;;;;1.60;1.50;;;;;;;19.68;76.50;100932.73;130556;1268;108737;-79
2022/07/02 12:52:30;;;;;;;3.10;1.50;;;;;;;19.74;76.45;100930.60;130265;1268;109036;-77
2022/07/02 12:55:39;;;;;;;3.20;2.40;;;;;;;19.85;76.54;100931.13;130311;1268;108684;-79
2022/07/02 12:58:44;;;;;;;1.60;1.40;;;;;;;20.00;75.90;100934.73;130259;1268;108084;-80
2022/07/02 13:01:50;;;;;;;2.40;1.50;;;;;;;19.97;75.36;100934.05;130336;1268;108917;-77
2022/07/02 13:04:56;;;;;;;1.70;1.40;;;;;;;19.93;75.68;100929.39;130381;1268;108956;-80
2022/07/02 13:08:02;;;;;;;2.20;1.50;;;;;;;19.97;75.67;100925.00;130530;1267;108995;-79
2022/07/02 13:11:07;;;;;;;2.50;2.30;;;;;;;20.09;75.31;100926.03;130309;1268;108844;-77
2022/07/02 13:14:12;;;;;;;1.50;1.40;;;;;;;20.35;75.31;100920.25;130253;1268;108731;-81
2022/07/02 13:17:18;;;;;;;1.50;1.40;;;;;;;20.62;75.07;100920.09;130362;1268;108851;-76
2022/07/02 13:20:33;;;;;;;2.20;1.40;;;;;;;20.82;74.86;100911.20;130238;1267;108750;-76
2022/07/02 13:23:39;;;;;;;10.50;3.00;;;;;;;20.85;73.70;100914.92;130556;1268;109749;-75
2022/07/02 13:26:44;;;;;;;2.30;1.70;;;;;;;20.83;73.77;100920.02;130501;1268;109057;-76
2022/07/02 13:29:50;;;;;;;3.00;1.70;;;;;;;20.77;73.49;100924.91;130351;1268;108655;-74
2022/07/02 13:32:56;;;;;;;2.20;2.00;;;;;;;20.55;73.04;100935.38;130349;1266;108636;-75
2022/07/02 13:36:01;;;;;;;3.20;2.10;;;;;;;20.23;73.44;100940.33;130643;1267;108762;-77
2022/07/02 13:39:07;;;;;;;4.00;1.90;;;;;;;20.04;74.56;100935.50;130237;1268;108974;-76
2022/07/02 13:42:12;;;;;;;5.60;3.20;;;;;;;19.88;74.78;100942.52;130369;1267;107288;-75
2022/07/02 13:45:18;;;;;;;3.80;2.30;;;;;;;19.80;75.27;100940.92;130627;1268;108255;-74
2022/07/02 13:48:24;;;;;;;3.30;2.60;;;;;;;19.80;74.98;100942.38;130273;1268;108730;-76
2022/07/02 13:51:30;;;;;;;2.50;2.30;;;;;;;19.70;75.07;100941.83;130477;1268;108801;-76
2022/07/02 13:54:35;;;;;;;4.60;2.50;;;;;;;19.69;75.59;100945.42;130259;1268;108945;-76
2022/07/02 13:57:41;;;;;;;2.80;2.20;;;;;;;19.68;75.71;100948.09;130189;1268;108773;-76
2022/07/02 14:00:46;;;;;;;2.50;2.10;;;;;;;19.71;75.65;100947.63;130198;1268;108614;-76
2022/07/02 14:03:52;;;;;;;2.40;2.10;;;;;;;19.86;75.79;100951.43;130250;1268;108222;-76
2022/07/02 14:06:57;;;;;;;2.20;2.00;;;;;;;19.93;75.35;100948.52;130321;1267;108780;-76
2022/07/02 14:10:03;;;;;;;2.30;2.10;;;;;;;20.01;75.44;100949.62;130232;1269;108757;-76
2022/07/02 14:13:08;;;;;;;2.30;2.10;;;;;;;20.00;74.88;100948.36;130288;1268;108707;-76
2022/07/02 14:16:14;;;;;;;2.00;1.90;;;;;;;19.93;74.72;100950.07;130287;1268;108911;-76